createdAt,value
2023-04-23T00:01:05.669Z,1.70
2023-04-23T00:03:43.007Z,2.00
2023-04-23T00:06:12.219Z,2.80
2023-04-23T00:08:42.080Z,2.60
2023-04-23T00:11:10.950Z,2.00
2023-04-23T00:13:39.323Z,2.50
2023-04-23T00:16:08.381Z,1.60
2023-04-23T00:18:36.535Z,1.30
2023-04-23T00:21:05.249Z,1.60
2023-04-23T00:23:33.518Z,2.60
2023-04-23T00:26:02.099Z,2.10
2023-04-23T00:28:30.071Z,1.90
2023-04-23T00:30:58.137Z,2.00
2023-04-23T00:33:26.418Z,1.20
2023-04-23T00:35:54.408Z,2.20
2023-04-23T00:38:22.362Z,1.50
2023-04-23T00:40:50.534Z,2.10
2023-04-23T00:43:19.447Z,2.00
2023-04-23T00:45:48.227Z,2.70
2023-04-23T00:48:17.101Z,1.60
2023-04-23T00:50:45.235Z,2.30
2023-04-23T00:53:13.451Z,2.00
2023-04-23T00:55:41.627Z,1.90
2023-04-23T00:58:09.899Z,2.80
2023-04-23T01:00:46.926Z,2.10
2023-04-23T01:03:18.676Z,2.60
2023-04-23T01:05:49.163Z,1.60
2023-04-23T01:08:18.883Z,4.00
2023-04-23T01:10:47.678Z,1.70
2023-04-23T01:13:16.141Z,2.30
2023-04-23T01:15:45.550Z,2.10
2023-04-23T01:18:14.879Z,2.00
2023-04-23T01:20:43.953Z,2.00
2023-04-23T01:23:12.530Z,1.50
2023-04-23T01:25:40.913Z,2.40
2023-04-23T01:28:09.408Z,2.00
2023-04-23T01:30:38.728Z,2.10
2023-04-23T01:33:08.212Z,2.30
2023-04-23T01:35:36.680Z,1.90
2023-04-23T01:38:08.030Z,2.60
2023-04-23T01:40:36.101Z,2.00
2023-04-23T01:43:05.704Z,1.90
2023-04-23T01:45:33.719Z,1.60
2023-04-23T01:48:02.182Z,2.40
2023-04-23T01:50:30.942Z,1.90
2023-04-23T01:52:59.013Z,2.70
2023-04-23T01:55:27.073Z,1.40
2023-04-23T01:57:55.914Z,1.90
2023-04-23T02:00:24.048Z,2.00
2023-04-23T02:02:54.047Z,2.30
2023-04-23T02:05:22.443Z,2.70
2023-04-23T02:07:51.960Z,2.00
2023-04-23T02:10:20.841Z,1.70
2023-04-23T02:12:49.112Z,1.80
2023-04-23T02:15:17.804Z,1.60
2023-04-23T02:17:46.138Z,2.40
2023-04-23T02:20:14.490Z,1.50
2023-04-23T02:22:43.258Z,1.40
2023-04-23T02:25:11.513Z,1.60
2023-04-23T02:27:39.491Z,1.20
2023-04-23T02:30:09.822Z,1.20
2023-04-23T02:32:39.054Z,1.50
2023-04-23T02:35:09.458Z,1.60
2023-04-23T02:37:37.621Z,1.70
2023-04-23T02:40:06.836Z,1.20
2023-04-23T02:42:35.396Z,0.80
2023-04-23T02:45:03.669Z,1.60
2023-04-23T02:47:31.790Z,1.60
2023-04-23T02:50:03.253Z,1.70
2023-04-23T02:52:31.471Z,1.70
2023-04-23T02:55:01.989Z,1.00
2023-04-23T02:57:30.088Z,2.10
2023-04-23T02:59:58.142Z,1.00
2023-04-23T03:02:30.786Z,1.30
2023-04-23T03:04:59.399Z,1.40
2023-04-23T03:07:27.893Z,1.20
2023-04-23T03:09:56.163Z,1.00
2023-04-23T03:12:24.490Z,1.20
2023-04-23T03:14:53.080Z,1.10
2023-04-23T03:17:21.572Z,1.30
2023-04-23T03:19:49.982Z,1.00
2023-04-23T03:22:18.670Z,0.70
2023-04-23T03:24:46.692Z,1.00
2023-04-23T03:27:16.052Z,1.10
2023-04-23T03:29:44.062Z,0.90
2023-04-23T03:32:12.192Z,1.40
2023-04-23T03:34:40.671Z,1.20
2023-04-23T03:37:09.147Z,0.70
2023-04-23T03:39:38.453Z,1.00
2023-04-23T03:42:06.627Z,0.90
2023-04-23T03:44:34.998Z,0.90
2023-04-23T03:47:03.770Z,1.00
2023-04-23T03:49:32.790Z,0.50
2023-04-23T03:52:00.956Z,0.70
2023-04-23T03:54:29.951Z,0.60
2023-04-23T03:57:09.591Z,1.10
2023-04-23T03:59:40.898Z,0.50
2023-04-23T04:02:09.749Z,0.50
2023-04-23T04:04:37.878Z,0.80
2023-04-23T04:07:07.919Z,0.60
2023-04-23T04:09:36.262Z,0.80
2023-04-23T04:12:05.297Z,0.80
2023-04-23T04:14:33.366Z,0.90
2023-04-23T04:17:01.334Z,0.70
2023-04-23T04:19:29.369Z,0.80
2023-04-23T04:21:57.395Z,0.60
2023-04-23T04:24:26.327Z,0.70
2023-04-23T04:26:54.650Z,0.70
2023-04-23T04:29:24.063Z,1.00
2023-04-23T04:31:53.044Z,0.60
2023-04-23T04:34:21.518Z,0.50
2023-04-23T04:36:49.711Z,0.50
2023-04-23T04:39:17.978Z,0.80
2023-04-23T04:41:46.865Z,0.70
2023-04-23T04:44:16.700Z,0.60
2023-04-23T04:46:45.118Z,0.50
2023-04-23T04:49:13.326Z,0.60
2023-04-23T04:51:41.812Z,0.60
2023-04-23T04:54:09.869Z,0.30
2023-04-23T04:56:38.157Z,0.40
2023-04-23T04:59:06.331Z,0.30
2023-04-23T05:01:34.519Z,0.50
2023-04-23T05:04:02.762Z,0.40
2023-04-23T05:06:32.439Z,0.20
2023-04-23T05:09:00.762Z,0.20
2023-04-23T05:11:28.912Z,0.30
2023-04-23T05:13:57.218Z,0.40
2023-04-23T05:16:25.254Z,0.50
2023-04-23T05:18:53.299Z,0.20
2023-04-23T05:21:21.537Z,0.60
2023-04-23T05:23:50.030Z,0.30
2023-04-23T05:26:18.345Z,0.20
2023-04-23T05:28:46.682Z,0.50
2023-04-23T05:31:14.967Z,0.30
2023-04-23T05:33:50.030Z,0.60
2023-04-23T05:36:19.225Z,0.30
2023-04-23T05:38:47.567Z,0.40
2023-04-23T05:41:16.352Z,0.40
2023-04-23T05:43:44.734Z,0.60
2023-04-23T05:46:12.664Z,0.40
2023-04-23T05:48:40.763Z,1.30
2023-04-23T05:51:09.650Z,0.70
2023-04-23T05:53:37.929Z,0.50
2023-04-23T05:56:05.957Z,0.60
2023-04-23T05:58:33.900Z,0.30
2023-04-23T06:01:01.879Z,0.30
2023-04-23T06:03:30.783Z,0.50
2023-04-23T06:05:58.993Z,0.20
2023-04-23T06:08:27.174Z,0.60
2023-04-23T06:10:56.261Z,0.30
2023-04-23T06:13:24.502Z,0.20
2023-04-23T06:15:52.550Z,0.70
2023-04-23T06:18:20.579Z,0.70
2023-04-23T06:20:48.978Z,1.10
2023-04-23T06:23:17.284Z,1.10
2023-04-23T06:25:45.524Z,1.00
2023-04-23T06:28:13.599Z,0.90
2023-04-23T06:31:05.779Z,0.40
2023-04-23T06:33:34.611Z,0.60
2023-04-23T06:36:03.505Z,0.80
2023-04-23T06:38:31.677Z,0.50
2023-04-23T06:41:00.056Z,1.30
2023-04-23T06:43:28.169Z,0.60
2023-04-23T06:46:15.444Z,0.90
2023-04-23T06:48:43.721Z,1.20
2023-04-23T06:51:12.209Z,0.90
2023-04-23T06:53:40.450Z,0.80
2023-04-23T06:56:08.854Z,1.20
2023-04-23T06:58:36.930Z,0.40
2023-04-23T07:01:12.516Z,0.80
2023-04-23T07:03:45.174Z,0.40
2023-04-23T07:06:13.444Z,0.90
2023-04-23T07:08:41.732Z,0.90
2023-04-23T07:11:10.920Z,2.10
2023-04-23T07:13:40.051Z,1.30
2023-04-23T07:16:08.110Z,1.20
2023-04-23T07:18:36.276Z,1.10
2023-04-23T07:21:04.393Z,0.60
2023-04-23T07:23:32.514Z,0.70
2023-04-23T07:26:00.601Z,0.50
2023-04-23T07:28:28.987Z,0.80
2023-04-23T07:30:57.145Z,0.60
2023-04-23T07:33:25.681Z,1.70
2023-04-23T07:35:53.738Z,0.70
2023-04-23T07:38:21.677Z,4.70
2023-04-23T07:40:49.840Z,2.00
2023-04-23T07:43:18.119Z,1.70
2023-04-23T07:45:46.273Z,1.20
2023-04-23T07:48:14.469Z,0.90
2023-04-23T07:50:42.631Z,1.00
2023-04-23T07:53:10.806Z,0.90
2023-04-23T07:55:38.744Z,1.10
2023-04-23T07:58:06.955Z,1.30
2023-04-23T08:00:36.310Z,0.50
2023-04-23T08:03:04.502Z,2.20
2023-04-23T08:05:32.716Z,1.20
2023-04-23T08:08:00.992Z,1.00
2023-04-23T08:10:29.265Z,0.20
2023-04-23T08:12:57.453Z,0.20
2023-04-23T08:15:25.384Z,0.60
2023-04-23T08:17:53.538Z,0.50
2023-04-23T08:20:21.568Z,0.80
2023-04-23T08:22:51.561Z,0.40
2023-04-23T08:25:21.184Z,0.80
2023-04-23T08:27:50.100Z,1.20
2023-04-23T08:30:18.159Z,1.20
2023-04-23T08:32:50.032Z,0.90
2023-04-23T08:35:18.440Z,0.60
2023-04-23T08:37:46.853Z,6.10
2023-04-23T08:40:15.101Z,2.30
2023-04-23T08:42:45.559Z,0.80
2023-04-23T08:45:13.999Z,0.60
2023-04-23T08:47:43.406Z,1.10
2023-04-23T08:50:13.361Z,0.50
2023-04-23T08:52:46.359Z,0.90
2023-04-23T08:55:15.967Z,1.30
2023-04-23T08:57:44.222Z,0.60
2023-04-23T09:00:16.508Z,0.70
2023-04-23T09:02:48.140Z,0.90
2023-04-23T09:05:17.659Z,0.50
2023-04-23T09:07:46.034Z,0.20
2023-04-23T09:10:17.740Z,0.30
2023-04-23T09:12:48.287Z,0.30
2023-04-23T09:15:17.111Z,0.50
2023-04-23T09:17:47.411Z,0.50
2023-04-23T09:20:16.015Z,0.50
2023-04-23T09:22:49.178Z,0.50
2023-04-23T09:25:19.809Z,0.40
2023-04-23T09:27:49.742Z,0.40
2023-04-23T09:30:18.978Z,0.60
2023-04-23T09:32:47.780Z,0.50
2023-04-23T09:35:20.165Z,0.20
2023-04-23T09:37:52.632Z,0.40
2023-04-23T09:40:24.000Z,0.30
2023-04-23T09:42:54.728Z,0.20
2023-04-23T09:45:26.018Z,0.20
2023-04-23T09:47:56.513Z,0.70
2023-04-23T09:50:39.154Z,0.80
2023-04-23T09:53:09.522Z,0.60
2023-04-23T09:55:39.570Z,0.40
2023-04-23T09:58:13.099Z,0.60
2023-04-23T10:00:42.519Z,0.30
2023-04-23T10:03:12.082Z,0.30
2023-04-23T10:08:16.193Z,0.50
2023-04-23T10:11:00.150Z,0.50
2023-04-23T10:13:36.506Z,0.50
2023-04-23T10:16:20.479Z,0.50
2023-04-23T10:18:52.093Z,0.80
2023-04-23T10:21:21.344Z,0.50
2023-04-23T10:23:51.481Z,0.40
2023-04-23T10:26:22.625Z,0.60
2023-04-23T10:31:20.798Z,0.40
2023-04-23T10:36:26.066Z,0.50
2023-04-23T10:38:59.234Z,0.70
2023-04-23T10:41:35.613Z,0.20
2023-04-23T10:44:05.631Z,0.50
2023-04-23T10:46:37.178Z,0.60
2023-04-23T10:49:08.125Z,0.20
2023-04-23T10:54:11.228Z,0.40
2023-04-23T10:56:40.253Z,0.40
2023-04-23T10:59:18.441Z,0.30
2023-04-23T11:01:52.866Z,0.50
2023-04-23T11:04:26.169Z,0.30
2023-04-23T11:06:55.654Z,0.70
2023-04-23T11:09:32.049Z,1.50
2023-04-23T11:12:01.946Z,0.40
2023-04-23T11:14:47.822Z,0.50
2023-04-23T11:17:18.153Z,0.60
2023-04-23T11:20:07.209Z,0.40
2023-04-23T11:22:39.443Z,0.50
2023-04-23T11:25:13.463Z,0.70
2023-04-23T11:27:47.001Z,0.60
2023-04-23T11:30:17.649Z,0.80
2023-04-23T11:32:50.830Z,0.40
2023-04-23T11:35:23.038Z,0.30
2023-04-23T11:37:51.218Z,0.60
2023-04-23T11:40:20.255Z,0.40
2023-04-23T11:42:57.740Z,0.40
2023-04-23T11:47:57.434Z,0.40
2023-04-23T11:50:33.798Z,0.20
2023-04-23T11:53:07.514Z,0.30
2023-04-23T11:55:35.925Z,0.50
2023-04-23T11:58:04.507Z,0.70
2023-04-23T12:00:32.570Z,0.50
2023-04-23T12:03:03.399Z,0.40
2023-04-23T12:05:37.070Z,0.40
2023-04-23T12:08:14.814Z,1.10
2023-04-23T12:10:55.693Z,0.60
2023-04-23T12:13:30.758Z,0.70
2023-04-23T12:16:04.336Z,0.70
2023-04-23T12:18:37.945Z,0.60
2023-04-23T12:21:11.294Z,0.50
2023-04-23T12:23:41.638Z,0.80
2023-04-23T12:26:15.414Z,0.70
2023-04-23T12:29:01.753Z,0.70
2023-04-23T12:31:30.536Z,0.70
2023-04-23T12:34:02.209Z,0.90
2023-04-23T12:36:31.700Z,0.70
2023-04-23T12:39:26.371Z,0.70
2023-04-23T12:42:05.925Z,1.10
2023-04-23T12:44:35.811Z,1.10
2023-04-23T12:47:09.125Z,0.70
2023-04-23T12:49:40.141Z,0.70
2023-04-23T12:52:09.650Z,1.30
2023-04-23T12:54:40.990Z,1.20
2023-04-23T12:57:12.994Z,0.80
2023-04-23T12:59:41.296Z,1.20
2023-04-23T13:02:10.079Z,1.20
2023-04-23T13:04:38.446Z,1.40
2023-04-23T13:07:06.922Z,1.40
2023-04-23T13:09:36.088Z,1.40
2023-04-23T13:12:04.375Z,1.70
2023-04-23T13:14:32.428Z,1.70
2023-04-23T13:17:00.562Z,1.40
2023-04-23T13:19:28.663Z,1.40
2023-04-23T13:21:56.656Z,1.40
2023-04-23T13:24:24.564Z,1.70
2023-04-23T13:26:52.737Z,1.60
2023-04-23T13:29:20.997Z,2.00
2023-04-23T13:31:49.201Z,2.30
2023-04-23T13:34:17.348Z,2.20
2023-04-23T13:36:45.370Z,2.30
2023-04-23T13:39:14.309Z,2.00
2023-04-23T13:41:42.441Z,2.70
2023-04-23T13:44:10.556Z,2.10
2023-04-23T13:46:40.224Z,2.70
2023-04-23T13:49:08.514Z,2.30
2023-04-23T13:51:36.516Z,2.70
2023-04-23T13:54:04.693Z,1.90
2023-04-23T13:56:33.273Z,2.40
2023-04-23T13:59:18.711Z,2.30
2023-04-23T14:01:51.695Z,3.10
2023-04-23T14:04:23.910Z,2.60
2023-04-23T14:06:51.983Z,2.30
2023-04-23T14:09:22.235Z,3.00
2023-04-23T14:11:50.589Z,3.00
2023-04-23T14:14:18.751Z,3.50
2023-04-23T14:16:46.751Z,3.40
2023-04-23T14:19:14.802Z,3.70
2023-04-23T14:21:43.270Z,3.80
2023-04-23T14:24:27.996Z,3.00
2023-04-23T14:26:57.023Z,3.40
2023-04-23T14:29:35.030Z,4.00
2023-04-23T14:32:03.108Z,4.50
2023-04-23T14:34:31.485Z,3.90
2023-04-23T14:36:59.557Z,4.60
2023-04-23T14:39:29.471Z,4.30
2023-04-23T14:41:57.400Z,4.10
2023-04-23T14:44:29.197Z,3.80
2023-04-23T14:46:57.355Z,4.20
2023-04-23T14:49:25.456Z,4.20
2023-04-23T14:51:58.090Z,4.90
2023-04-23T14:54:26.240Z,4.70
2023-04-23T14:56:54.169Z,4.30
2023-04-23T14:59:23.897Z,4.80
2023-04-23T15:01:51.888Z,5.30
2023-04-23T15:04:20.262Z,3.00
2023-04-23T15:06:48.397Z,5.30
2023-04-23T15:09:17.121Z,4.00
2023-04-23T15:11:45.455Z,4.20
2023-04-23T15:14:41.172Z,4.20
2023-04-23T15:17:09.263Z,4.40
2023-04-23T15:19:37.420Z,3.80
2023-04-23T15:22:05.393Z,4.10
2023-04-23T15:24:33.377Z,3.90
2023-04-23T15:27:02.254Z,4.70
2023-04-23T15:29:30.743Z,4.40
2023-04-23T15:31:59.772Z,3.40
2023-04-23T15:34:27.827Z,3.80
2023-04-23T15:36:55.878Z,3.90
2023-04-23T15:39:24.410Z,3.20
2023-04-23T15:41:53.774Z,3.20
2023-04-23T15:44:22.135Z,2.80
2023-04-23T15:46:50.214Z,3.30
2023-04-23T15:49:18.290Z,3.00
2023-04-23T15:51:46.685Z,3.10
2023-04-23T15:54:14.731Z,3.10
2023-04-23T15:56:42.662Z,3.40
2023-04-23T15:59:10.732Z,2.70
2023-04-23T16:01:38.865Z,2.60
2023-04-23T16:04:10.290Z,2.80
2023-04-23T16:06:39.791Z,3.30
2023-04-23T16:09:08.170Z,3.10
2023-04-23T16:11:37.998Z,2.50
2023-04-23T16:14:09.141Z,3.20
2023-04-23T16:19:07.119Z,2.70
2023-04-23T16:21:35.390Z,2.70
2023-04-23T16:24:03.976Z,2.50
2023-04-23T16:26:32.490Z,2.10
2023-04-23T16:33:59.973Z,2.60
2023-04-23T16:36:28.437Z,2.60
2023-04-23T16:38:57.002Z,3.10
2023-04-23T16:41:25.100Z,3.30
2023-04-23T16:43:53.160Z,2.60
2023-04-23T16:46:21.487Z,3.00
2023-04-23T16:48:49.781Z,2.60
2023-04-23T16:51:17.888Z,2.40
2023-04-23T16:53:45.936Z,2.30
2023-04-23T16:56:13.949Z,2.50
2023-04-23T16:58:41.950Z,3.00
2023-04-23T17:01:11.081Z,3.10
2023-04-23T17:03:39.580Z,3.10
2023-04-23T17:06:20.356Z,3.40
2023-04-23T17:08:48.733Z,2.00
2023-04-23T17:11:16.682Z,2.60
2023-04-23T17:13:45.106Z,1.70
2023-04-23T17:16:13.214Z,1.20
2023-04-23T17:18:41.295Z,2.40
2023-04-23T17:21:09.818Z,1.90
2023-04-23T17:23:37.973Z,2.10
2023-04-23T17:26:06.568Z,1.70
2023-04-23T17:28:34.999Z,1.60
2023-04-23T17:31:03.821Z,1.60
2023-04-23T17:33:32.101Z,1.90
2023-04-23T17:36:00.218Z,2.60
2023-04-23T17:38:29.060Z,2.00
2023-04-23T17:40:57.772Z,2.60
2023-04-23T17:43:25.934Z,2.40
2023-04-23T17:45:53.921Z,2.30
2023-04-23T17:48:23.026Z,1.90
2023-04-23T17:50:51.880Z,1.60
2023-04-23T17:53:20.773Z,2.30
2023-04-23T17:55:48.842Z,2.80
2023-04-23T17:58:16.873Z,2.20
2023-04-23T18:00:45.257Z,1.90
2023-04-23T18:03:18.482Z,2.10
2023-04-23T18:05:46.885Z,1.30
2023-04-23T18:08:19.574Z,2.10
2023-04-23T18:10:47.716Z,2.40
2023-04-23T18:13:15.937Z,2.60
2023-04-23T18:15:49.686Z,2.80
2023-04-23T18:18:18.584Z,1.70
2023-04-23T18:20:47.735Z,1.80
2023-04-23T18:23:16.015Z,2.20
2023-04-23T18:25:44.098Z,2.20
2023-04-23T18:28:12.742Z,2.20
2023-04-23T18:30:40.685Z,2.30
2023-04-23T18:33:19.542Z,2.10
2023-04-23T18:35:48.407Z,2.00
2023-04-23T18:38:38.817Z,3.10
2023-04-23T18:41:06.774Z,1.90
2023-04-23T18:43:34.847Z,1.40
2023-04-23T18:46:03.343Z,1.40
2023-04-23T18:48:34.258Z,2.10
2023-04-23T18:51:13.518Z,1.90
2023-04-23T18:53:41.669Z,1.50
2023-04-23T18:56:10.062Z,2.00
2023-04-23T18:58:38.037Z,1.30
2023-04-23T19:01:06.332Z,1.40
2023-04-23T19:03:35.069Z,1.30
2023-04-23T19:06:07.683Z,1.30
2023-04-23T19:08:36.646Z,1.60
2023-04-23T19:11:05.044Z,1.60
2023-04-23T19:13:33.303Z,1.70
2023-04-23T19:16:01.468Z,1.30
2023-04-23T19:18:29.553Z,2.10
2023-04-23T19:20:58.459Z,2.60
2023-04-23T19:23:26.466Z,1.70
2023-04-23T19:25:54.482Z,2.40
2023-04-23T19:28:24.599Z,2.00
2023-04-23T19:30:52.984Z,0.90
2023-04-23T19:33:21.250Z,0.90
2023-04-23T19:35:50.245Z,1.60
2023-04-23T19:38:18.936Z,1.80
2023-04-23T19:40:47.312Z,1.10
2023-04-23T19:43:15.899Z,1.70
2023-04-23T19:45:44.117Z,1.40
2023-04-23T19:48:12.549Z,1.70
2023-04-23T19:50:40.829Z,1.60
2023-04-23T19:53:09.267Z,1.80
2023-04-23T19:55:37.579Z,1.50
2023-04-23T19:58:06.724Z,2.60
2023-04-23T20:00:39.513Z,1.60
2023-04-23T20:03:08.762Z,1.50
2023-04-23T20:05:37.858Z,1.60
2023-04-23T20:08:14.577Z,1.80
2023-04-23T20:10:43.457Z,1.40
2023-04-23T20:13:11.696Z,1.30
2023-04-23T20:15:39.910Z,1.30
2023-04-23T20:18:07.923Z,2.20
2023-04-23T20:20:36.939Z,1.40
2023-04-23T20:23:04.905Z,1.80
2023-04-23T20:25:33.078Z,2.00
2023-04-23T20:28:00.983Z,1.30
2023-04-23T20:30:28.927Z,1.70
2023-04-23T20:32:58.254Z,1.70
2023-04-23T20:35:28.991Z,1.60
2023-04-23T20:37:57.041Z,1.80
2023-04-23T20:40:25.424Z,1.30
2023-04-23T20:42:54.606Z,1.70
2023-04-23T20:45:22.582Z,1.70
2023-04-23T20:47:51.614Z,1.70
2023-04-23T20:50:19.619Z,1.90
2023-04-23T20:52:47.610Z,1.40
2023-04-23T20:55:15.783Z,1.60
2023-04-23T20:57:43.986Z,1.50
2023-04-23T21:00:12.768Z,1.70
2023-04-23T21:02:41.274Z,2.60
2023-04-23T21:05:11.929Z,2.00
2023-04-23T21:07:39.888Z,1.80
2023-04-23T21:10:08.411Z,1.70
2023-04-23T21:12:36.656Z,1.50
2023-04-23T21:15:05.482Z,1.40
2023-04-23T21:17:33.400Z,1.60
2023-04-23T21:20:01.635Z,1.60
2023-04-23T21:22:29.786Z,2.10
2023-04-23T21:24:57.791Z,1.10
2023-04-23T21:27:25.842Z,1.40
2023-04-23T21:29:54.112Z,1.00
2023-04-23T21:32:22.321Z,1.20
2023-04-23T21:34:50.333Z,1.20
2023-04-23T21:37:18.244Z,1.00
2023-04-23T21:39:46.487Z,1.00
2023-04-23T21:42:14.486Z,1.20
2023-04-23T21:44:42.708Z,1.60
2023-04-23T21:47:10.953Z,1.30
2023-04-23T21:49:38.969Z,1.10
2023-04-23T21:52:09.314Z,1.00
2023-04-23T21:54:37.466Z,0.80
2023-04-23T21:57:06.012Z,1.30
2023-04-23T21:59:34.044Z,1.50
2023-04-23T22:02:02.167Z,1.00
2023-04-23T22:04:31.109Z,0.90
2023-04-23T22:07:04.411Z,1.40
2023-04-23T22:09:32.461Z,1.20
2023-04-23T22:12:02.592Z,1.10
2023-04-23T22:14:31.362Z,0.80
2023-04-23T22:17:02.126Z,1.40
2023-04-23T22:19:31.450Z,1.00
2023-04-23T22:21:59.475Z,1.40
2023-04-23T22:24:27.453Z,1.20
2023-04-23T22:26:55.513Z,1.00
2023-04-23T22:29:23.690Z,1.00
2023-04-23T22:31:51.886Z,1.80
2023-04-23T22:34:20.037Z,1.40
2023-04-23T22:36:48.147Z,1.10
2023-04-23T22:39:16.178Z,1.00
2023-04-23T22:41:44.356Z,1.50
2023-04-23T22:44:12.271Z,1.10
2023-04-23T22:46:40.486Z,0.80
2023-04-23T22:49:11.351Z,0.70
2023-04-23T22:51:40.032Z,1.10
2023-04-23T22:54:08.093Z,1.10
2023-04-23T22:56:37.496Z,1.40
2023-04-23T22:59:05.777Z,1.50
2023-04-23T23:01:34.825Z,1.00
2023-04-23T23:04:03.015Z,1.70
2023-04-23T23:06:32.340Z,1.20
2023-04-23T23:09:00.313Z,2.40
2023-04-23T23:11:29.411Z,1.10
2023-04-23T23:13:58.702Z,0.90
2023-04-23T23:16:27.058Z,1.30
2023-04-23T23:18:55.427Z,1.20
2023-04-23T23:21:23.870Z,1.00
2023-04-23T23:23:52.144Z,1.70
2023-04-23T23:26:20.605Z,1.40
2023-04-23T23:28:48.676Z,1.30
2023-04-23T23:31:17.231Z,1.00
2023-04-23T23:33:45.541Z,1.20
2023-04-23T23:36:13.604Z,1.20
2023-04-23T23:38:41.572Z,2.00
2023-04-23T23:41:09.959Z,0.70
2023-04-23T23:43:38.037Z,1.00
2023-04-23T23:46:06.103Z,1.00
2023-04-23T23:48:34.191Z,1.50
2023-04-23T23:51:02.251Z,2.00
2023-04-23T23:53:30.544Z,1.50
2023-04-23T23:56:00.182Z,1.60
2023-04-23T23:58:29.424Z,1.40
